createdAt,value
2019-06-07T03:01:18.650Z,36.45
2019-06-07T03:03:47.969Z,38.42
2019-06-07T03:06:17.271Z,38.63
2019-06-07T03:08:46.905Z,34.23
2019-06-07T03:11:16.867Z,50.63
2019-06-07T03:13:48.163Z,40.45
2019-06-07T03:16:19.851Z,33.30
2019-06-07T03:18:50.855Z,36.58
2019-06-07T03:21:34.385Z,27.93
2019-06-07T03:24:04.773Z,28.07
2019-06-07T03:26:35.759Z,31.12
2019-06-07T03:29:05.047Z,38.38
2019-06-07T03:31:41.678Z,41.05
2019-06-07T03:34:05.639Z,35.85
2019-06-07T03:36:38.891Z,33.45
2019-06-07T03:39:06.788Z,36.10
2019-06-07T03:41:43.838Z,31.55
2019-06-07T03:44:07.398Z,26.80
2019-06-07T03:46:39.032Z,24.57
2019-06-07T03:49:07.723Z,28.75
2019-06-07T03:51:39.630Z,29.23
2019-06-07T03:54:08.312Z,29.45
2019-06-07T03:56:38.637Z,28.80
2019-06-07T03:59:08.599Z,33.67
2019-06-07T04:01:41.039Z,31.30
2019-06-07T04:04:09.135Z,29.15
2019-06-07T04:06:41.931Z,27.02
2019-06-07T04:09:09.479Z,24.25
2019-06-07T04:11:40.410Z,26.90
2019-06-07T04:14:09.781Z,24.67
2019-06-07T04:16:43.650Z,23.85
2019-06-07T04:19:10.082Z,26.70
2019-06-07T04:21:42.587Z,28.77
2019-06-07T04:24:10.602Z,26.02
2019-06-07T04:26:43.600Z,29.18
2019-06-07T04:31:43.118Z,26.85
2019-06-07T04:34:12.814Z,28.02
2019-06-07T04:36:56.687Z,22.95
2019-06-07T04:39:14.022Z,20.77
2019-06-07T04:41:45.931Z,22.82
2019-06-07T04:44:17.036Z,26.12
2019-06-07T04:46:49.243Z,22.82
2019-06-07T04:49:20.546Z,22.80
2019-06-07T04:51:50.990Z,20.90
2019-06-07T04:54:20.287Z,18.73
2019-06-07T04:56:49.587Z,25.45
2019-06-07T05:00:00.795Z,21.37
2019-06-07T05:01:50.324Z,18.02
2019-06-07T05:04:19.790Z,21.60
2019-06-07T05:06:49.095Z,18.92
2019-06-07T05:09:18.395Z,18.70
2019-06-07T05:11:47.706Z,21.35
2019-06-07T05:14:17.066Z,33.98
2019-06-07T05:16:46.375Z,31.87
2019-06-07T05:19:15.678Z,29.32
2019-06-07T05:22:02.826Z,28.00
2019-06-07T05:24:17.114Z,30.20
2019-06-07T05:26:46.466Z,26.82
2019-06-07T05:29:15.765Z,27.67
2019-06-07T05:31:45.690Z,23.75
2019-06-07T05:34:15.218Z,22.58
2019-06-07T05:36:45.283Z,25.55
2019-06-07T05:39:14.666Z,24.67
2019-06-07T05:41:45.062Z,22.85
2019-06-07T05:44:15.212Z,22.50
2019-06-07T05:46:47.134Z,17.50
2019-06-07T05:49:17.042Z,18.35
2019-06-07T05:51:46.358Z,19.12
2019-06-07T05:54:15.658Z,12.28
2019-06-07T05:56:45.939Z,10.85
2019-06-07T05:59:15.245Z,12.63
2019-06-07T06:01:56.298Z,11.15
2019-06-07T06:04:15.806Z,9.98
2019-06-07T06:06:47.303Z,10.63
2019-06-07T06:09:16.399Z,10.25
2019-06-07T06:11:59.035Z,9.63
2019-06-07T06:14:16.678Z,9.40
2019-06-07T06:16:49.368Z,9.30
2019-06-07T06:19:16.966Z,9.55
2019-06-07T06:21:46.547Z,11.70
2019-06-07T06:24:16.258Z,11.78
2019-06-07T06:26:51.381Z,11.93
2019-06-07T06:29:16.558Z,10.20
2019-06-07T06:32:35.466Z,11.30
2019-06-07T06:34:17.142Z,10.38
2019-06-07T06:36:47.833Z,11.00
2019-06-07T06:39:17.466Z,11.55
2019-06-07T06:41:58.456Z,9.78
2019-06-07T06:44:17.867Z,11.35
2019-06-07T06:46:56.765Z,10.93
2019-06-07T06:49:18.437Z,10.72
2019-06-07T06:51:53.337Z,9.95
2019-06-07T06:54:39.295Z,10.45
2019-06-07T06:56:52.610Z,11.12
2019-06-07T06:59:38.241Z,11.43
2019-06-07T07:01:52.746Z,9.45
2019-06-07T07:04:22.723Z,10.10
2019-06-07T07:06:53.688Z,9.70
2019-06-07T07:09:24.182Z,11.12
2019-06-07T07:12:10.197Z,11.78
2019-06-07T07:14:24.567Z,9.15
2019-06-07T07:16:56.646Z,9.23
2019-06-07T07:19:25.110Z,9.70
2019-06-07T07:21:55.431Z,7.67
2019-06-07T07:24:24.953Z,9.23
2019-06-07T07:26:58.228Z,7.83
2019-06-07T07:29:26.040Z,9.05
2019-06-07T07:31:56.604Z,10.32
2019-06-07T07:34:35.641Z,8.30
2019-06-07T07:36:59.728Z,8.08
2019-06-07T07:39:27.990Z,7.40
2019-06-07T07:42:17.870Z,8.05
2019-06-07T07:44:28.527Z,7.25
2019-06-07T07:46:57.815Z,8.40
2019-06-07T07:49:27.151Z,8.33
2019-06-07T07:51:58.764Z,7.12
2019-06-07T07:54:27.495Z,7.72
2019-06-07T07:56:57.453Z,6.92
2019-06-07T07:59:41.278Z,7.50
2019-06-07T08:01:58.723Z,6.80
2019-06-07T08:05:12.148Z,6.10
2019-06-07T08:06:59.346Z,7.40
2019-06-07T08:09:28.695Z,6.40
2019-06-07T08:12:00.727Z,7.55
2019-06-07T08:14:29.024Z,7.45
2019-06-07T08:16:59.319Z,6.58
2019-06-07T08:19:28.768Z,6.75
2019-06-07T08:22:01.637Z,6.30
2019-06-07T08:24:29.110Z,6.22
2019-06-07T08:27:24.549Z,6.22
2019-06-07T08:29:44.454Z,7.20
2019-06-07T08:32:00.930Z,5.67
2019-06-07T08:34:30.459Z,5.97
2019-06-07T08:37:01.931Z,5.78
2019-06-07T08:39:31.287Z,6.70
2019-06-07T08:42:15.337Z,5.50
2019-06-07T08:44:31.674Z,6.20
2019-06-07T08:47:18.915Z,6.65
2019-06-07T08:49:32.237Z,5.00
2019-06-07T08:52:10.582Z,4.78
2019-06-07T08:54:32.539Z,4.40
2019-06-07T08:57:19.330Z,4.75
2019-06-07T08:59:32.818Z,4.80
2019-06-07T09:02:09.950Z,4.37
2019-06-07T09:04:33.115Z,5.08
2019-06-07T09:07:14.708Z,5.08
2019-06-07T09:09:34.940Z,6.20
2019-06-07T09:12:10.212Z,6.80
2019-06-07T09:14:56.461Z,4.30
2019-06-07T09:17:12.049Z,4.80
2019-06-07T09:19:38.974Z,5.33
2019-06-07T09:22:11.236Z,4.53
2019-06-07T09:24:39.323Z,3.83
2019-06-07T09:27:10.457Z,4.72
2019-06-07T09:29:40.156Z,4.37
2019-06-07T09:32:14.845Z,4.95
2019-06-07T09:34:40.447Z,4.03
2019-06-07T09:38:03.184Z,5.50
2019-06-07T09:39:42.298Z,6.58
2019-06-07T09:42:12.646Z,4.65
2019-06-07T09:44:42.275Z,3.83
2019-06-07T09:47:31.052Z,4.22
2019-06-07T09:49:43.573Z,5.53
2019-06-07T09:52:12.894Z,10.95
2019-06-07T09:55:06.261Z,5.55
2019-06-07T09:57:17.554Z,4.75
2019-06-07T09:59:44.269Z,5.12
2019-06-07T10:02:13.964Z,4.20
2019-06-07T10:04:43.411Z,3.52
2019-06-07T10:07:30.583Z,6.62
2019-06-07T10:12:15.938Z,3.85
2019-06-07T10:14:45.504Z,4.92
2019-06-07T10:17:14.818Z,4.08
2019-06-07T10:19:44.111Z,3.77
2019-06-07T10:22:13.411Z,4.35
2019-06-07T10:24:43.063Z,3.42
2019-06-07T10:27:12.491Z,4.40
2019-06-07T10:29:41.789Z,5.28
2019-06-07T10:32:11.624Z,3.90
2019-06-07T10:34:41.012Z,5.55
2019-06-07T10:37:14.886Z,4.12
2019-06-07T10:39:48.493Z,5.47
2019-06-07T10:42:13.872Z,3.85
2019-06-07T10:44:43.185Z,5.55
2019-06-07T10:47:12.458Z,2.90
2019-06-07T10:49:42.819Z,3.50
2019-06-07T10:52:13.309Z,4.65
2019-06-07T10:54:42.943Z,5.12
2019-06-07T10:57:15.561Z,4.87
2019-06-07T10:59:43.591Z,3.72
2019-06-07T11:02:14.058Z,3.75
2019-06-07T11:04:43.864Z,3.50
2019-06-07T11:07:14.542Z,3.65
2019-06-07T11:09:44.083Z,2.92
2019-06-07T11:12:15.145Z,4.65
2019-06-07T11:14:44.471Z,5.40
2019-06-07T11:17:15.492Z,6.75
2019-06-07T11:19:45.072Z,9.20
2019-06-07T11:22:14.366Z,3.58
2019-06-07T11:24:43.998Z,3.52
2019-06-07T11:27:16.075Z,3.80
2019-06-07T11:29:44.837Z,3.20
2019-06-07T11:32:14.609Z,3.87
2019-06-07T11:34:44.075Z,3.98
2019-06-07T11:37:14.288Z,3.50
2019-06-07T11:39:44.655Z,3.42
2019-06-07T11:42:14.067Z,3.90
2019-06-07T11:44:56.162Z,3.87
2019-06-07T11:47:14.565Z,3.50
2019-06-07T11:49:45.148Z,5.05
2019-06-07T11:52:15.779Z,3.27
2019-06-07T11:54:48.054Z,3.70
2019-06-07T11:57:17.316Z,5.83
2019-06-07T11:59:46.798Z,3.15
2019-06-07T12:02:17.575Z,3.90
2019-06-07T12:04:47.022Z,3.87
2019-06-07T12:07:17.671Z,3.95
2019-06-07T12:09:56.127Z,4.10
2019-06-07T12:12:20.573Z,4.87
2019-06-07T12:14:49.575Z,3.50
2019-06-07T12:17:19.579Z,3.20
2019-06-07T12:19:49.203Z,5.10
2019-06-07T12:22:19.920Z,3.08
2019-06-07T12:24:50.547Z,3.70
2019-06-07T12:27:20.809Z,3.42
2019-06-07T12:29:50.207Z,4.00
2019-06-07T12:32:19.684Z,3.50
2019-06-07T12:34:48.955Z,4.28
2019-06-07T12:37:21.064Z,3.75
2019-06-07T12:39:49.238Z,3.72
2019-06-07T12:42:20.619Z,3.55
2019-06-07T12:44:50.194Z,4.72
2019-06-07T12:47:19.494Z,3.80
2019-06-07T12:49:48.804Z,4.03
2019-06-07T12:52:20.039Z,3.90
2019-06-07T12:54:49.127Z,3.50
2019-06-07T12:57:20.027Z,4.05
2019-06-07T12:59:49.494Z,3.52
2019-06-07T13:02:19.977Z,4.40
2019-06-07T13:04:49.968Z,4.75
2019-06-07T13:07:20.081Z,3.80
2019-06-07T13:09:49.655Z,3.37
2019-06-07T13:12:19.771Z,3.72
2019-06-07T13:14:49.217Z,3.62
2019-06-07T13:17:18.783Z,4.03
2019-06-07T13:19:49.318Z,4.10
2019-06-07T13:22:20.266Z,3.58
2019-06-07T13:24:49.824Z,3.85
2019-06-07T13:27:20.580Z,7.67
2019-06-07T13:29:49.842Z,5.58
2019-06-07T13:32:19.743Z,4.08
2019-06-07T13:34:49.030Z,4.33
2019-06-07T13:37:19.680Z,3.98
2019-06-07T13:39:50.395Z,3.65
2019-06-07T13:42:20.467Z,5.40
2019-06-07T13:44:49.952Z,3.50
2019-06-07T13:47:19.243Z,4.33
2019-06-07T13:49:48.534Z,3.40
2019-06-07T13:52:18.055Z,3.87
2019-06-07T13:54:47.563Z,4.90
2019-06-07T13:57:17.908Z,3.90
2019-06-07T13:59:47.338Z,4.30
2019-06-07T14:02:16.625Z,3.67
2019-06-07T14:04:46.198Z,4.05
2019-06-07T14:07:15.478Z,6.05
2019-06-07T14:09:44.813Z,3.98
2019-06-07T14:12:14.402Z,3.52
2019-06-07T14:14:44.017Z,5.10
2019-06-07T14:17:13.317Z,4.05
2019-06-07T14:19:42.615Z,3.65
2019-06-07T14:22:11.906Z,3.80
2019-06-07T14:24:41.194Z,5.12
2019-06-07T14:27:10.485Z,4.62
2019-06-07T14:29:39.822Z,3.65
2019-06-07T14:32:09.642Z,5.22
2019-06-07T14:34:38.967Z,4.17
2019-06-07T14:37:08.253Z,5.42
2019-06-07T14:39:37.759Z,5.95
2019-06-07T14:42:10.034Z,4.60
2019-06-07T14:44:38.114Z,4.78
2019-06-07T14:47:07.420Z,5.80
2019-06-07T14:49:36.720Z,3.12
2019-06-07T14:52:06.070Z,5.72
2019-06-07T14:54:38.860Z,3.58
2019-06-07T14:57:06.675Z,5.03
2019-06-07T14:59:36.189Z,3.98
2019-06-07T15:02:05.489Z,4.83
2019-06-07T15:04:34.864Z,3.85
2019-06-07T15:07:04.415Z,4.30
2019-06-07T15:09:35.279Z,3.40
2019-06-07T15:12:04.831Z,3.58
2019-06-07T15:14:35.411Z,3.60
2019-06-07T15:17:04.958Z,6.05
2019-06-07T15:19:36.394Z,4.67
2019-06-07T15:22:05.247Z,5.75
2019-06-07T15:24:38.606Z,7.80
2019-06-07T15:27:05.851Z,3.87
2019-06-07T15:29:35.982Z,3.37
2019-06-07T15:32:05.396Z,4.00
2019-06-07T15:34:34.700Z,3.87
2019-06-07T15:37:04.730Z,3.52
2019-06-07T15:39:34.673Z,4.75
2019-06-07T15:42:04.286Z,3.80
2019-06-07T15:44:33.397Z,4.80
2019-06-07T15:47:02.656Z,5.15
2019-06-07T15:49:32.083Z,3.70
2019-06-07T15:52:01.552Z,6.58
2019-06-07T15:54:30.842Z,6.65
2019-06-07T15:57:00.139Z,26.40
2019-06-07T15:59:29.455Z,5.08
2019-06-07T16:01:58.811Z,4.47
2019-06-07T16:04:28.212Z,8.48
2019-06-07T16:06:57.863Z,5.40
2019-06-07T16:09:27.159Z,9.45
2019-06-07T16:11:56.447Z,6.20
2019-06-07T16:14:25.778Z,4.37
2019-06-07T16:16:55.213Z,6.50
2019-06-07T16:19:24.649Z,8.80
2019-06-07T16:21:53.995Z,5.40
2019-06-07T16:24:23.356Z,8.23
2019-06-07T16:26:53.106Z,5.62
2019-06-07T16:29:22.515Z,4.42
2019-06-07T16:31:52.095Z,5.33
2019-06-07T16:34:21.940Z,5.05
2019-06-07T16:36:51.229Z,4.60
2019-06-07T16:39:20.527Z,6.37
2019-06-07T16:41:49.819Z,4.92
2019-06-07T16:44:19.112Z,5.28
2019-06-07T16:46:49.115Z,4.83
2019-06-07T16:49:18.519Z,4.42
2019-06-07T16:51:47.818Z,7.08
2019-06-07T16:54:17.096Z,5.45
2019-06-07T16:56:50.829Z,5.65
2019-06-07T16:59:18.134Z,6.65
2019-06-07T17:01:49.497Z,10.38
2019-06-07T17:04:19.279Z,11.90
2019-06-07T17:06:48.559Z,9.93
2019-06-07T17:09:17.846Z,7.45
2019-06-07T17:11:48.512Z,6.15
2019-06-07T17:14:18.015Z,7.55
2019-06-07T17:16:48.706Z,5.15
2019-06-07T17:19:18.621Z,5.60
2019-06-07T17:21:49.447Z,5.25
2019-06-07T17:24:18.883Z,8.15
2019-06-07T17:26:49.602Z,8.18
2019-06-07T17:29:19.994Z,7.08
2019-06-07T17:31:50.392Z,5.37
2019-06-07T17:34:20.103Z,5.53
2019-06-07T17:36:50.750Z,6.20
2019-06-07T17:39:20.189Z,6.08
2019-06-07T17:42:01.067Z,4.85
2019-06-07T17:44:20.472Z,5.65
2019-06-07T17:46:50.019Z,7.47
2019-06-07T17:49:20.319Z,11.53
2019-06-07T17:51:49.976Z,8.35
2019-06-07T17:54:19.375Z,14.70
2019-06-07T17:56:48.670Z,7.30
2019-06-07T17:59:17.955Z,7.60
2019-06-07T18:02:06.764Z,5.58
2019-06-07T18:04:18.272Z,7.92
2019-06-07T18:06:47.755Z,5.70
2019-06-07T18:09:18.652Z,9.18
2019-06-07T18:11:48.001Z,5.35
2019-06-07T18:14:17.316Z,10.43
2019-06-07T18:16:46.941Z,3.17
2019-06-07T18:19:16.227Z,9.60
2019-06-07T18:21:46.986Z,6.30
2019-06-07T18:24:16.997Z,3.67
2019-06-07T18:26:46.611Z,4.72
2019-06-07T18:29:15.906Z,2.20
2019-06-07T18:31:46.630Z,2.65
2019-06-07T18:34:16.458Z,2.35
2019-06-07T18:36:46.882Z,5.00
2019-06-07T18:39:16.331Z,2.67
2019-06-07T18:41:46.920Z,2.70
2019-06-07T18:44:21.635Z,2.85
2019-06-07T18:46:48.148Z,2.65
2019-06-07T18:49:17.572Z,1.80
2019-06-07T18:51:49.634Z,1.00
2019-06-07T18:54:19.267Z,1.75
2019-06-07T18:56:48.875Z,1.12
2019-06-07T18:59:18.191Z,6.17
2019-06-07T19:01:47.788Z,3.72
2019-06-07T19:04:17.113Z,3.80
2019-06-07T19:06:46.700Z,2.25
2019-06-07T19:09:16.007Z,3.62
2019-06-07T19:11:45.293Z,2.40
2019-06-07T19:14:14.595Z,2.60
2019-06-07T19:16:44.212Z,4.20
2019-06-07T19:19:13.502Z,4.03
2019-06-07T19:21:42.796Z,2.17
2019-06-07T19:24:12.091Z,2.17
2019-06-07T19:26:41.388Z,4.37
2019-06-07T19:29:10.671Z,3.35
2019-06-07T19:31:39.960Z,3.80
2019-06-07T19:34:09.289Z,3.17
2019-06-07T19:36:48.390Z,3.05
2019-06-07T19:39:09.635Z,2.90
2019-06-07T19:41:39.172Z,4.78
2019-06-07T19:44:08.492Z,2.70
2019-06-07T19:46:37.786Z,6.20
2019-06-07T19:49:07.067Z,2.12
2019-06-07T19:51:36.403Z,4.22
2019-06-07T19:54:05.724Z,3.15
2019-06-07T19:56:34.996Z,3.65
2019-06-07T19:59:05.720Z,1.98
2019-06-07T20:01:35.015Z,2.95
2019-06-07T20:04:04.573Z,7.62
2019-06-07T20:06:33.872Z,6.50
2019-06-07T20:09:04.919Z,8.35
2019-06-07T20:11:34.955Z,4.65
2019-06-07T20:14:05.088Z,6.70
2019-06-07T20:16:34.520Z,7.25
2019-06-07T20:19:05.550Z,2.77
2019-06-07T20:21:35.058Z,5.80
2019-06-07T20:24:24.081Z,2.67
2019-06-07T20:26:36.138Z,6.87
2019-06-07T20:29:05.821Z,3.65
2019-06-07T20:31:36.828Z,2.80
2019-06-07T20:34:06.154Z,5.20
2019-06-07T20:36:35.538Z,5.10
2019-06-07T20:39:08.299Z,2.30
2019-06-07T20:41:37.907Z,2.55
2019-06-07T20:44:08.073Z,3.22
2019-06-07T20:46:37.515Z,3.22
2019-06-07T20:49:08.416Z,5.83
2019-06-07T20:51:37.846Z,3.10
2019-06-07T20:54:07.510Z,2.87
2019-06-07T20:56:37.046Z,4.62
2019-06-07T20:59:06.855Z,2.95
2019-06-07T21:01:36.595Z,2.67
2019-06-07T21:04:07.290Z,3.02
2019-06-07T21:06:36.667Z,3.58
2019-06-07T21:09:07.682Z,4.17
2019-06-07T21:11:37.093Z,3.72
2019-06-07T21:14:06.399Z,4.92
2019-06-07T21:16:35.754Z,4.45
2019-06-07T21:19:06.257Z,2.45
2019-06-07T21:21:35.660Z,5.12
2019-06-07T21:24:04.955Z,3.02
2019-06-07T21:26:34.239Z,3.17
2019-06-07T21:29:03.539Z,5.80
2019-06-07T21:31:32.838Z,2.85
2019-06-07T21:34:03.321Z,2.70
2019-06-07T21:36:33.104Z,3.65
2019-06-07T21:39:03.961Z,4.05
2019-06-07T21:41:34.018Z,3.80
2019-06-07T21:44:03.981Z,3.72
2019-06-07T21:46:33.471Z,3.00
2019-06-07T21:49:02.760Z,2.37
2019-06-07T21:51:32.166Z,2.72
2019-06-07T21:54:02.501Z,2.45
2019-06-07T21:56:32.503Z,1.17
2019-06-07T21:59:02.876Z,2.15
2019-06-07T22:01:34.159Z,4.90
2019-06-07T22:04:03.641Z,3.47
2019-06-07T22:06:32.918Z,2.55
2019-06-07T22:09:03.716Z,4.30
2019-06-07T22:11:33.779Z,1.65
2019-06-07T22:14:04.224Z,2.27
2019-06-07T22:16:33.550Z,2.10
2019-06-07T22:19:02.844Z,3.12
2019-06-07T22:21:32.127Z,3.20
2019-06-07T22:24:02.699Z,3.98
2019-06-07T22:26:31.987Z,1.82
2019-06-07T22:29:01.630Z,4.10
2019-06-07T22:31:31.298Z,4.75
2019-06-07T22:34:00.842Z,2.10
2019-06-07T22:36:30.147Z,4.08
2019-06-07T22:38:59.442Z,5.58
2019-06-07T22:41:28.740Z,2.50
2019-06-07T22:43:58.031Z,4.05
2019-06-07T22:46:36.810Z,3.80
2019-06-07T22:48:58.394Z,3.12
2019-06-07T22:51:28.754Z,3.22
2019-06-07T22:53:58.323Z,2.83
2019-06-07T22:56:29.251Z,2.60
2019-06-07T22:58:58.555Z,4.55
2019-06-07T23:01:27.846Z,4.42
2019-06-07T23:03:57.134Z,3.62
2019-06-07T23:06:26.430Z,2.87
2019-06-07T23:08:55.723Z,3.98
2019-06-07T23:11:25.277Z,2.83
2019-06-07T23:13:54.554Z,3.20
2019-06-07T23:16:23.847Z,4.87
2019-06-07T23:18:53.479Z,4.28
2019-06-07T23:21:22.768Z,4.25
2019-06-07T23:23:52.063Z,4.22
2019-06-07T23:26:21.355Z,2.83
2019-06-07T23:28:50.692Z,3.08
2019-06-07T23:31:20.808Z,2.00
2019-06-07T23:33:50.527Z,5.47
2019-06-07T23:36:21.199Z,2.95
2019-06-07T23:38:50.687Z,2.80
2019-06-07T23:41:20.534Z,5.25
2019-06-07T23:43:51.122Z,2.42
2019-06-07T23:46:21.645Z,4.72
2019-06-07T23:48:51.026Z,3.95
2019-06-07T23:51:20.324Z,3.45
2019-06-07T23:53:50.811Z,4.30
2019-06-07T23:56:20.557Z,3.65
2019-06-07T23:58:49.846Z,2.85
